createdAt,value
2023-04-29T00:00:02.076Z,101265.88
2023-04-29T00:02:31.874Z,101273.38
2023-04-29T00:05:01.889Z,101269.19
2023-04-29T00:07:29.641Z,101270.53
2023-04-29T00:09:57.215Z,101273.69
2023-04-29T00:12:24.830Z,101274.38
2023-04-29T00:14:52.509Z,101273.34
2023-04-29T00:17:20.132Z,101277.03
2023-04-29T00:19:48.027Z,101278.16
2023-04-29T00:22:17.559Z,101264.41
2023-04-29T00:24:45.184Z,101271.53
2023-04-29T00:27:12.888Z,101271.34
2023-04-29T00:29:40.492Z,101279.00
2023-04-29T00:32:08.186Z,101276.66
2023-04-29T00:34:35.904Z,101270.69
2023-04-29T00:37:04.077Z,101267.38
2023-04-29T00:39:33.036Z,101277.28
2023-04-29T00:42:01.327Z,101276.13
2023-04-29T00:44:28.967Z,101281.28
2023-04-29T00:46:56.560Z,101279.28
2023-04-29T00:49:24.174Z,101287.22
2023-04-29T00:51:52.018Z,101293.84
2023-04-29T00:54:19.634Z,101294.03
2023-04-29T00:56:48.990Z,101289.88
2023-04-29T00:59:17.208Z,101296.50
2023-04-29T01:01:45.665Z,101289.69
2023-04-29T01:04:13.692Z,101298.81
2023-04-29T01:06:57.158Z,101298.44
2023-04-29T01:09:41.138Z,101299.44
2023-04-29T01:12:21.490Z,101291.31
2023-04-29T01:14:55.708Z,101291.31
2023-04-29T01:17:26.744Z,101296.09
2023-04-29T01:19:56.977Z,101300.25
2023-04-29T01:22:24.781Z,101297.97
2023-04-29T01:24:54.985Z,101298.31
2023-04-29T01:27:30.591Z,101301.63
2023-04-29T01:30:03.806Z,101302.47
2023-04-29T01:32:42.812Z,101301.28
2023-04-29T01:35:19.157Z,101298.94
2023-04-29T01:37:57.860Z,101301.28
2023-04-29T01:40:35.106Z,101295.31
2023-04-29T01:43:04.389Z,101303.28
2023-04-29T01:45:35.083Z,101305.09
2023-04-29T01:48:04.750Z,101309.22
2023-04-29T01:50:32.599Z,101312.72
2023-04-29T01:53:00.411Z,101321.16
2023-04-29T01:55:29.394Z,101316.69
2023-04-29T01:57:57.017Z,101321.16
2023-04-29T02:00:24.954Z,101320.84
2023-04-29T02:02:52.613Z,101317.38
2023-04-29T02:05:20.217Z,101321.84
2023-04-29T02:07:47.797Z,101320.69
2023-04-29T02:10:15.581Z,101323.66
2023-04-29T02:12:44.650Z,101321.00
2023-04-29T02:15:12.720Z,101332.28
2023-04-29T02:17:41.072Z,101327.81
2023-04-29T02:20:10.181Z,101327.81
2023-04-29T02:22:37.793Z,101320.84
2023-04-29T02:25:06.506Z,101320.84
2023-04-29T02:27:34.066Z,101333.28
2023-04-29T02:30:04.731Z,101326.47
2023-04-29T02:32:32.556Z,101336.59
2023-04-29T02:35:00.157Z,101342.25
2023-04-29T02:37:28.576Z,101335.63
2023-04-29T02:39:56.181Z,101347.22
2023-04-29T02:42:23.802Z,101342.94
2023-04-29T02:44:51.406Z,101348.72
2023-04-29T02:47:20.378Z,101340.78
2023-04-29T02:49:47.980Z,101346.25
2023-04-29T02:52:16.902Z,101341.94
2023-04-29T02:54:45.070Z,101350.91
2023-04-29T02:57:12.775Z,101343.59
2023-04-29T02:59:40.382Z,101345.28
2023-04-29T03:02:08.035Z,101346.41
2023-04-29T03:04:37.042Z,101347.09
2023-04-29T03:07:05.367Z,101360.34
2023-04-29T03:09:32.967Z,101352.91
2023-04-29T03:12:01.039Z,101355.25
2023-04-29T03:14:28.670Z,101358.56
2023-04-29T03:16:56.935Z,101354.09
2023-04-29T03:19:24.680Z,101364.00
2023-04-29T03:21:54.175Z,101363.22
2023-04-29T03:24:22.077Z,101369.63
2023-04-29T03:26:49.691Z,101367.50
2023-04-29T03:29:17.350Z,101373.97
2023-04-29T03:31:45.134Z,101362.19
2023-04-29T03:34:14.463Z,101373.66
2023-04-29T03:36:42.035Z,101365.69
2023-04-29T03:39:11.836Z,101382.44
2023-04-29T03:41:39.681Z,101380.75
2023-04-29T03:44:07.360Z,101379.78
2023-04-29T03:46:35.088Z,101377.97
2023-04-29T03:49:02.872Z,101385.09
2023-04-29T03:51:30.717Z,101387.09
2023-04-29T03:53:59.283Z,101387.56
2023-04-29T03:56:28.301Z,101387.75
2023-04-29T03:58:55.879Z,101395.72
2023-04-29T04:01:23.539Z,101384.25
2023-04-29T04:03:51.270Z,101399.03
2023-04-29T04:06:19.177Z,101404.66
2023-04-29T04:08:46.821Z,101398.19
2023-04-29T04:11:15.186Z,101408.78
2023-04-29T04:13:44.507Z,101409.50
2023-04-29T04:16:12.503Z,101408.16
2023-04-29T04:18:40.486Z,101413.97
2023-04-29T04:21:08.590Z,101415.97
2023-04-29T04:23:36.436Z,101421.63
2023-04-29T04:26:04.050Z,101421.63
2023-04-29T04:28:31.934Z,101423.31
2023-04-29T04:31:00.975Z,101425.63
2023-04-29T04:33:28.634Z,101440.75
2023-04-29T04:35:56.886Z,101435.09
2023-04-29T04:38:25.527Z,101439.75
2023-04-29T04:40:53.211Z,101440.75
2023-04-29T04:43:21.147Z,101440.59
2023-04-29T04:45:48.807Z,101442.94
2023-04-29T04:48:17.802Z,101444.09
2023-04-29T04:50:45.457Z,101454.22
2023-04-29T04:53:13.509Z,101458.69
2023-04-29T04:55:41.147Z,101457.53
2023-04-29T04:58:08.765Z,101459.69
2023-04-29T05:00:36.353Z,101457.19
2023-04-29T05:03:04.429Z,101465.88
2023-04-29T05:05:34.465Z,101470.34
2023-04-29T05:08:02.845Z,101476.47
2023-04-29T05:10:30.551Z,101469.69
2023-04-29T05:12:58.210Z,101469.38
2023-04-29T05:15:27.434Z,101470.22
2023-04-29T05:17:55.542Z,101471.72
2023-04-29T05:20:23.250Z,101472.09
2023-04-29T05:22:52.267Z,101470.28
2023-04-29T05:25:20.400Z,101474.66
2023-04-29T05:27:48.055Z,101472.66
2023-04-29T05:30:15.904Z,101472.97
2023-04-29T05:32:43.748Z,101472.16
2023-04-29T05:35:13.771Z,101487.13
2023-04-29T05:37:41.464Z,101487.97
2023-04-29T05:40:11.519Z,101479.16
2023-04-29T05:42:39.150Z,101489.28
2023-04-29T05:45:07.910Z,101486.28
2023-04-29T05:47:35.708Z,101494.09
2023-04-29T05:50:03.358Z,101497.59
2023-04-29T05:52:32.034Z,101502.75
2023-04-29T05:55:01.037Z,101498.91
2023-04-29T05:57:33.268Z,101504.03
2023-04-29T06:00:01.209Z,101512.66
2023-04-29T06:02:29.008Z,101505.66
2023-04-29T06:04:57.513Z,101514.31
2023-04-29T06:07:26.634Z,101518.47
2023-04-29T06:09:56.877Z,101515.47
2023-04-29T06:12:24.530Z,101523.78
2023-04-29T06:14:53.967Z,101521.41
2023-04-29T06:17:21.729Z,101522.03
2023-04-29T06:19:49.374Z,101523.31
2023-04-29T06:22:17.578Z,101529.78
2023-04-29T06:24:45.287Z,101529.28
2023-04-29T06:27:15.120Z,101531.31
2023-04-29T06:29:43.135Z,101533.13
2023-04-29T06:32:13.999Z,101536.34
2023-04-29T06:34:41.743Z,101535.34
2023-04-29T06:37:09.322Z,101546.97
2023-04-29T06:39:36.966Z,101535.53
2023-04-29T06:42:05.049Z,101544.16
2023-04-29T06:44:32.689Z,101548.84
2023-04-29T06:47:00.657Z,101540.66
2023-04-29T06:49:29.742Z,101547.53
2023-04-29T06:51:57.525Z,101551.13
2023-04-29T06:54:25.609Z,101553.31
2023-04-29T06:56:53.199Z,101555.56
2023-04-29T06:59:21.211Z,101556.91
2023-04-29T07:01:49.915Z,101560.78
2023-04-29T07:04:17.777Z,101550.66
2023-04-29T07:06:47.324Z,101546.09
2023-04-29T07:09:15.417Z,101548.34
2023-04-29T07:11:43.350Z,101556.13
2023-04-29T07:14:10.996Z,101554.97
2023-04-29T07:16:38.662Z,101553.44
2023-04-29T07:19:06.297Z,101549.06
2023-04-29T07:21:34.124Z,101557.31
2023-04-29T07:24:04.958Z,101556.41
2023-04-29T07:26:32.732Z,101552.88
2023-04-29T07:29:00.353Z,101550.91
2023-04-29T07:31:28.473Z,101553.56
2023-04-29T07:33:57.194Z,101551.41
2023-04-29T07:36:24.848Z,101564.31
2023-04-29T07:38:53.218Z,101570.97
2023-04-29T07:41:22.355Z,101572.19
2023-04-29T07:43:49.961Z,101575.16
2023-04-29T07:46:18.290Z,101574.66
2023-04-29T07:48:46.186Z,101567.59
2023-04-29T07:51:15.178Z,101580.13
2023-04-29T07:53:43.332Z,101582.63
2023-04-29T07:56:11.235Z,101574.78
2023-04-29T07:58:40.244Z,101589.28
2023-04-29T08:01:08.706Z,101589.28
2023-04-29T08:03:38.858Z,101583.34
2023-04-29T08:06:08.781Z,101585.69
2023-04-29T08:08:36.725Z,101587.19
2023-04-29T08:11:04.558Z,101586.88
2023-04-29T08:13:32.200Z,101583.81
2023-04-29T08:16:01.495Z,101582.81
2023-04-29T08:18:29.305Z,101597.69
2023-04-29T08:20:56.962Z,101600.03
2023-04-29T08:23:24.852Z,101591.13
2023-04-29T08:25:53.510Z,101592.47
2023-04-29T08:28:21.204Z,101605.56
2023-04-29T08:30:50.079Z,101608.22
2023-04-29T08:33:19.101Z,101596.97
2023-04-29T08:35:46.741Z,101604.16
2023-04-29T08:38:15.142Z,101605.88
2023-04-29T08:40:45.641Z,101613.97
2023-04-29T08:43:15.166Z,101618.53
2023-04-29T08:45:43.592Z,101621.47
2023-04-29T08:48:12.509Z,101620.50
2023-04-29T08:50:42.696Z,101607.75
2023-04-29T08:53:11.762Z,101619.81
2023-04-29T08:55:43.491Z,101610.81
2023-04-29T08:58:12.415Z,101627.50
2023-04-29T09:00:41.351Z,101623.88
2023-04-29T09:03:15.918Z,101626.84
2023-04-29T09:05:49.755Z,101620.50
2023-04-29T09:08:18.072Z,101619.28
2023-04-29T09:10:45.807Z,101622.78
2023-04-29T09:13:25.417Z,101619.84
2023-04-29T09:15:53.394Z,101625.50
2023-04-29T09:18:55.087Z,101617.88
2023-04-29T09:21:26.079Z,101619.88
2023-04-29T09:23:55.778Z,101621.75
2023-04-29T09:26:24.322Z,101622.91
2023-04-29T09:29:08.477Z,101619.84
2023-04-29T09:31:37.310Z,101621.06
2023-04-29T09:34:05.143Z,101623.78
2023-04-29T09:36:59.023Z,101623.88
2023-04-29T09:39:26.889Z,101631.16
2023-04-29T09:42:03.044Z,101626.75
2023-04-29T09:44:34.517Z,101638.13
2023-04-29T09:47:03.881Z,101631.22
2023-04-29T09:49:35.616Z,101637.03
2023-04-29T09:52:06.584Z,101634.84
2023-04-29T09:54:36.301Z,101633.28
2023-04-29T09:57:06.133Z,101630.94
2023-04-29T09:59:36.003Z,101641.56
2023-04-29T10:02:09.287Z,101644.09
2023-04-29T10:04:41.469Z,101631.34
2023-04-29T10:07:10.748Z,101634.25
2023-04-29T10:09:40.882Z,101641.66
2023-04-29T10:12:09.143Z,101641.22
2023-04-29T10:14:44.451Z,101645.75
2023-04-29T10:17:17.187Z,101638.13
2023-04-29T10:19:53.546Z,101648.31
2023-04-29T10:22:30.472Z,101644.63
2023-04-29T10:25:00.165Z,101645.97
2023-04-29T10:27:28.930Z,101647.81
2023-04-29T10:29:59.498Z,101655.50
2023-04-29T10:32:37.008Z,101656.78
2023-04-29T10:35:13.689Z,101655.31
2023-04-29T10:37:43.197Z,101652.47
2023-04-29T10:40:16.090Z,101659.03
2023-04-29T10:42:46.273Z,101662.66
2023-04-29T10:45:21.150Z,101666.34
2023-04-29T10:48:13.963Z,101670.28
2023-04-29T10:50:57.648Z,101663.25
2023-04-29T10:53:26.851Z,101666.44
2023-04-29T10:55:56.034Z,101666.16
2023-04-29T10:58:37.437Z,101672.06
2023-04-29T11:01:07.816Z,101666.94
2023-04-29T11:04:01.655Z,101669.41
2023-04-29T11:06:41.507Z,101666.75
2023-04-29T11:09:14.251Z,101661.56
2023-04-29T11:11:47.295Z,101665.28
2023-04-29T11:14:16.429Z,101666.25
2023-04-29T11:16:53.614Z,101667.13
2023-04-29T11:19:21.737Z,101674.72
2023-04-29T11:21:49.438Z,101656.22
2023-04-29T11:24:18.371Z,101667.69
2023-04-29T11:26:46.402Z,101665.78
2023-04-29T11:29:14.570Z,101678.63
2023-04-29T11:31:42.297Z,101674.94
2023-04-29T11:34:10.398Z,101675.16
2023-04-29T11:36:38.032Z,101673.19
2023-04-29T11:39:05.837Z,101692.53
2023-04-29T11:41:35.785Z,101685.06
2023-04-29T11:44:04.939Z,101687.16
2023-04-29T11:46:32.959Z,101691.97
2023-04-29T11:49:02.001Z,101687.44
2023-04-29T11:51:29.883Z,101691.22
2023-04-29T11:53:58.888Z,101692.91
2023-04-29T11:56:26.585Z,101692.66
2023-04-29T11:59:01.318Z,101688.53
2023-04-29T12:01:29.181Z,101688.41
2023-04-29T12:04:00.994Z,101689.41
2023-04-29T12:06:30.050Z,101691.78
2023-04-29T12:09:00.559Z,101702.38
2023-04-29T12:11:29.015Z,101694.78
2023-04-29T12:13:58.426Z,101704.81
2023-04-29T12:16:29.343Z,101709.09
2023-04-29T12:18:57.445Z,101700.00
2023-04-29T12:21:25.300Z,101711.34
2023-04-29T12:23:53.116Z,101711.63
2023-04-29T12:26:21.963Z,101701.28
2023-04-29T12:28:54.921Z,101711.03
2023-04-29T12:31:24.285Z,101718.63
2023-04-29T12:33:55.311Z,101724.03
2023-04-29T12:36:24.337Z,101731.44
2023-04-29T12:38:54.533Z,101714.91
2023-04-29T12:41:37.617Z,101714.91
2023-04-29T12:44:06.619Z,101717.00
2023-04-29T12:46:40.520Z,101724.09
2023-04-29T12:49:09.026Z,101706.34
2023-04-29T12:51:37.596Z,101734.97
2023-04-29T12:54:06.934Z,101732.41
2023-04-29T12:56:34.694Z,101742.56
2023-04-29T12:59:08.619Z,101737.38
2023-04-29T13:01:37.941Z,101737.50
2023-04-29T13:04:09.091Z,101749.47
2023-04-29T13:06:39.413Z,101737.09
2023-04-29T13:09:12.186Z,101744.63
2023-04-29T13:11:44.588Z,101733.69
2023-04-29T13:14:12.158Z,101733.91
2023-04-29T13:16:41.302Z,101742.44
2023-04-29T13:19:29.529Z,101750.75
2023-04-29T13:21:57.792Z,101746.81
2023-04-29T13:24:25.359Z,101748.81
2023-04-29T13:26:54.207Z,101744.13
2023-04-29T13:29:21.937Z,101741.28
2023-04-29T13:31:51.517Z,101745.56
2023-04-29T13:34:20.394Z,101734.53
2023-04-29T13:36:48.075Z,101730.16
2023-04-29T13:39:15.679Z,101725.75
2023-04-29T13:41:45.878Z,101742.69
2023-04-29T13:46:47.492Z,101732.41
2023-04-29T13:49:42.288Z,101733.16
2023-04-29T13:53:00.820Z,101745.16
2023-04-29T13:55:23.215Z,101754.25
2023-04-29T13:58:36.094Z,101759.13
2023-04-29T14:00:45.269Z,101757.31
2023-04-29T14:03:18.595Z,101753.34
2023-04-29T14:05:47.828Z,101762.03
2023-04-29T14:08:15.493Z,101759.44
2023-04-29T14:10:43.456Z,101757.31
2023-04-29T14:13:11.087Z,101770.97
2023-04-29T14:15:39.085Z,101755.75
2023-04-29T14:18:09.453Z,101767.81
2023-04-29T14:20:37.073Z,101768.84
2023-04-29T14:23:06.056Z,101781.41
2023-04-29T14:25:34.007Z,101786.56
2023-04-29T14:28:01.891Z,101782.59
2023-04-29T14:30:29.557Z,101793.47
2023-04-29T14:32:57.635Z,101797.78
2023-04-29T14:35:25.428Z,101803.00
2023-04-29T14:37:53.031Z,101795.81
2023-04-29T14:40:22.195Z,101805.56
2023-04-29T14:42:49.755Z,101790.41
2023-04-29T14:45:18.090Z,101792.41
2023-04-29T14:47:46.717Z,101804.69
2023-04-29T14:50:14.526Z,101797.28
2023-04-29T14:52:42.136Z,101816.16
2023-04-29T14:55:09.996Z,101813.22
2023-04-29T14:57:39.158Z,101797.19
2023-04-29T15:00:08.909Z,101814.13
2023-04-29T15:02:36.596Z,101811.31
2023-04-29T15:05:04.889Z,101810.63
2023-04-29T15:07:33.024Z,101805.63
2023-04-29T15:10:00.874Z,101813.00
2023-04-29T15:12:28.541Z,101817.47
2023-04-29T15:14:57.550Z,101820.91
2023-04-29T15:17:25.460Z,101809.75
2023-04-29T15:19:53.107Z,101819.44
2023-04-29T15:22:20.703Z,101823.13
2023-04-29T15:27:21.407Z,101822.53
2023-04-29T15:29:49.022Z,101821.66
2023-04-29T15:32:18.167Z,101821.66
2023-04-29T15:34:45.833Z,101828.09
2023-04-29T15:37:13.492Z,101830.72
2023-04-29T15:39:41.315Z,101830.56
2023-04-29T15:42:09.440Z,101834.72
2023-04-29T15:44:37.034Z,101827.25
2023-04-29T15:47:04.927Z,101828.81
2023-04-29T15:49:34.104Z,101827.31
2023-04-29T15:52:02.026Z,101833.03
2023-04-29T15:54:29.658Z,101835.31
2023-04-29T15:56:58.134Z,101836.59
2023-04-29T15:59:25.745Z,101839.31
2023-04-29T16:01:53.411Z,101838.78
2023-04-29T16:04:20.998Z,101846.19
2023-04-29T16:06:51.090Z,101835.50
2023-04-29T16:09:18.912Z,101837.84
2023-04-29T16:11:46.971Z,101842.09
2023-04-29T16:14:14.538Z,101836.06
2023-04-29T16:16:42.759Z,101836.19
2023-04-29T16:19:11.860Z,101846.91
2023-04-29T16:21:39.827Z,101851.72
2023-04-29T16:24:08.858Z,101851.88
2023-04-29T16:26:37.340Z,101855.03
2023-04-29T16:29:05.190Z,101861.06
2023-04-29T16:31:33.041Z,101862.59
2023-04-29T16:34:00.699Z,101870.66
2023-04-29T16:36:28.325Z,101876.69
2023-04-29T16:38:55.982Z,101874.31
2023-04-29T16:41:25.997Z,101875.88
2023-04-29T16:43:54.027Z,101874.84
2023-04-29T16:46:21.893Z,101878.88
2023-04-29T16:48:51.309Z,101879.38
2023-04-29T16:51:19.177Z,101885.56
2023-04-29T16:53:46.779Z,101884.53
2023-04-29T16:56:14.438Z,101892.72
2023-04-29T16:58:43.473Z,101886.66
2023-04-29T17:01:11.243Z,101897.00
2023-04-29T17:03:38.878Z,101893.50
2023-04-29T17:06:06.683Z,101899.81
2023-04-29T17:08:34.799Z,101900.31
2023-04-29T17:11:03.694Z,101888.50
2023-04-29T17:13:31.318Z,101896.97
2023-04-29T17:16:00.583Z,101889.94
2023-04-29T17:18:29.458Z,101908.44
2023-04-29T17:20:57.168Z,101916.25
2023-04-29T17:23:24.855Z,101911.44
2023-04-29T17:25:54.554Z,101908.25
2023-04-29T17:28:22.383Z,101921.88
2023-04-29T17:30:50.266Z,101924.50
2023-04-29T17:33:19.955Z,101916.31
2023-04-29T17:35:47.547Z,101920.13
2023-04-29T17:38:15.165Z,101919.88
2023-04-29T17:40:42.820Z,101925.19
2023-04-29T17:43:10.571Z,101934.25
2023-04-29T17:45:40.889Z,101933.41
2023-04-29T17:48:08.655Z,101939.00
2023-04-29T17:50:38.811Z,101935.34
2023-04-29T17:53:06.809Z,101931.16
2023-04-29T17:55:34.459Z,101931.09
2023-04-29T17:58:03.754Z,101951.19
2023-04-29T18:00:31.481Z,101963.59
2023-04-29T18:02:59.287Z,101963.59
2023-04-29T18:05:26.950Z,101953.56
2023-04-29T18:07:56.049Z,101959.34
2023-04-29T18:10:23.752Z,101948.81
2023-04-29T18:12:51.372Z,101972.19
2023-04-29T18:15:23.554Z,101965.84
2023-04-29T18:17:52.132Z,101955.69
2023-04-29T18:20:20.587Z,101970.41
2023-04-29T18:22:49.662Z,101967.38
2023-04-29T18:25:19.132Z,101974.94
2023-04-29T18:27:46.755Z,101981.56
2023-04-29T18:30:14.677Z,101978.66
2023-04-29T18:32:42.431Z,101987.91
2023-04-29T18:35:10.760Z,101987.78
2023-04-29T18:37:38.489Z,101999.28
2023-04-29T18:40:07.700Z,101983.94
2023-04-29T18:42:36.724Z,101995.72
2023-04-29T18:45:04.937Z,101991.41
2023-04-29T18:47:32.696Z,101990.03
2023-04-29T18:50:00.353Z,101995.91
2023-04-29T18:52:27.976Z,101995.53
2023-04-29T18:54:55.602Z,102000.72
2023-04-29T18:57:23.247Z,102007.47
2023-04-29T18:59:53.389Z,102014.03
2023-04-29T19:02:21.239Z,102022.16
2023-04-29T19:04:48.953Z,102016.28
2023-04-29T19:07:16.568Z,102011.13
2023-04-29T19:09:44.184Z,102017.28
2023-04-29T19:12:11.777Z,102026.25
2023-04-29T19:14:39.907Z,102029.75
2023-04-29T19:17:08.939Z,102034.78
2023-04-29T19:19:36.731Z,102039.22
2023-04-29T19:22:05.255Z,102040.75
2023-04-29T19:24:33.856Z,102040.50
2023-04-29T19:27:01.781Z,102045.94
2023-04-29T19:29:29.401Z,102054.19
2023-04-29T19:31:57.025Z,102055.16
2023-04-29T19:34:26.320Z,102067.03
2023-04-29T19:36:53.974Z,102066.31
2023-04-29T19:39:21.697Z,102066.88
2023-04-29T19:41:49.346Z,102064.81
2023-04-29T19:44:16.998Z,102070.38
2023-04-29T19:46:44.619Z,102078.16
2023-04-29T19:49:12.859Z,102072.47
2023-04-29T19:51:42.420Z,102076.50
2023-04-29T19:54:10.227Z,102094.31
2023-04-29T19:56:37.857Z,102085.00
2023-04-29T19:59:05.721Z,102086.91
2023-04-29T20:01:33.983Z,102086.78
2023-04-29T20:04:01.702Z,102083.72
2023-04-29T20:06:29.885Z,102084.97
2023-04-29T20:08:58.988Z,102089.84
2023-04-29T20:11:26.939Z,102085.63
2023-04-29T20:13:54.550Z,102089.28
2023-04-29T20:16:23.311Z,102104.59
2023-04-29T20:18:51.154Z,102100.41
2023-04-29T20:21:18.778Z,102106.25
2023-04-29T20:23:46.407Z,102110.13
2023-04-29T20:26:16.493Z,102107.47
2023-04-29T20:28:45.405Z,102107.91
2023-04-29T20:31:13.010Z,102116.91
2023-04-29T20:33:40.946Z,102114.28
2023-04-29T20:36:09.053Z,102119.13
2023-04-29T20:38:36.847Z,102124.00
2023-04-29T20:41:05.794Z,102130.53
2023-04-29T20:43:35.085Z,102122.59
2023-04-29T20:46:03.273Z,102127.63
2023-04-29T20:48:30.932Z,102132.72
2023-04-29T20:50:58.557Z,102135.88
2023-04-29T20:53:26.293Z,102131.53
2023-04-29T20:55:53.870Z,102129.16
2023-04-29T20:58:21.680Z,102123.34
2023-04-29T21:00:50.983Z,102126.41
2023-04-29T21:03:20.865Z,102136.41
2023-04-29T21:05:48.582Z,102141.25
2023-04-29T21:08:16.186Z,102143.19
2023-04-29T21:10:43.830Z,102135.66
2023-04-29T21:13:11.825Z,102139.41
2023-04-29T21:15:39.509Z,102144.81
2023-04-29T21:18:08.530Z,102159.03
2023-04-29T21:20:36.368Z,102157.31
2023-04-29T21:23:04.076Z,102150.50
2023-04-29T21:25:31.777Z,102146.69
2023-04-29T21:27:59.492Z,102145.97
2023-04-29T21:30:27.162Z,102144.53
2023-04-29T21:32:55.577Z,102150.78
2023-04-29T21:35:24.836Z,102156.75
2023-04-29T21:37:52.557Z,102160.09
2023-04-29T21:40:20.570Z,102162.72
2023-04-29T21:42:48.766Z,102160.47
2023-04-29T21:45:17.349Z,102163.13
2023-04-29T21:47:45.481Z,102163.88
2023-04-29T21:50:14.331Z,102159.44
2023-04-29T21:52:43.530Z,102160.53
2023-04-29T21:55:11.423Z,102165.25
2023-04-29T22:00:20.582Z,102170.38
2023-04-29T22:02:48.595Z,102171.03
2023-04-29T22:05:16.456Z,102173.78
2023-04-29T22:07:46.067Z,102170.19
2023-04-29T22:10:13.833Z,102179.31
2023-04-29T22:12:41.525Z,102169.72
2023-04-29T22:15:20.677Z,102166.25
2023-04-29T22:17:55.485Z,102176.69
2023-04-29T22:20:23.257Z,102190.16
2023-04-29T22:22:52.426Z,102181.50
2023-04-29T22:25:21.876Z,102193.63
2023-04-29T22:27:49.915Z,102192.94
2023-04-29T22:30:18.001Z,102195.22
2023-04-29T22:32:45.833Z,102190.78
2023-04-29T22:35:13.549Z,102192.00
2023-04-29T22:37:41.349Z,102187.53
2023-04-29T22:40:12.731Z,102195.59
2023-04-29T22:42:41.874Z,102194.16
2023-04-29T22:45:11.703Z,102199.56
2023-04-29T22:47:39.758Z,102202.44
2023-04-29T22:50:08.641Z,102203.06
2023-04-29T22:52:36.258Z,102207.75
2023-04-29T22:55:04.166Z,102197.06
2023-04-29T22:57:33.214Z,102201.66
2023-04-29T23:00:01.079Z,102205.34
2023-04-29T23:02:29.306Z,102208.84
2023-04-29T23:04:57.697Z,102202.69
2023-04-29T23:07:26.614Z,102207.03
2023-04-29T23:09:54.483Z,102200.78
2023-04-29T23:12:22.336Z,102198.16
2023-04-29T23:14:51.658Z,102201.75
2023-04-29T23:17:19.412Z,102200.31
2023-04-29T23:19:47.027Z,102205.97
2023-04-29T23:22:14.666Z,102213.75
2023-04-29T23:24:42.316Z,102220.13
2023-04-29T23:27:09.940Z,102215.94
2023-04-29T23:29:38.849Z,102222.31
2023-04-29T23:32:07.800Z,102220.63
2023-04-29T23:34:35.594Z,102221.72
2023-04-29T23:37:03.292Z,102222.81
2023-04-29T23:39:30.980Z,102212.22
2023-04-29T23:41:58.637Z,102223.88
2023-04-29T23:44:26.190Z,102220.50
2023-04-29T23:46:55.108Z,102218.59
2023-04-29T23:49:24.129Z,102226.41
2023-04-29T23:51:51.789Z,102225.44
2023-04-29T23:54:19.386Z,102230.13
2023-04-29T23:56:47.304Z,102232.16
2023-04-29T23:59:15.240Z,102219.78
